Terminal Aerodrome Forecast
Issued by NWS St Louis, MO

Home | Current Version | Previous Version | Text Only | Print | Product List | Glossary On
Versions: 1 2 3 4 5 6 7 8 9 10 11 12 13 14 15 16 17 18 19 20 21 22 23 24 25 26
712
FTUS43 KLSX 150530
TAFSTL
TAF
KSTL 150530Z 1506/1612 29005KT P6SM OVC035
     FM151700 27008G17KT P6SM SCT060
     FM160000 22006KT P6SM FEW250=

USA.gov is the U.S. government's official web portal to all federal, state and local government web resources and services.